Time;durP1;ratioP1;P1;durP2;ratioP2;P2;SDS_P1;SDS_P2;PMS_P1;PMS_P2;Temp;Humidity;BMP_temperature;BMP_pressure;BME280_temperature;BME280_humidity;BME280_pressure;Samples;Min_cycle;Max_cycle;Signal;HPM_P1;HPM_P2
2023/03/11 00:00:48;;;;;;;0.30;0.20;;;;;;;12.82;100.00;93728.13;5113368;28;20676;-53
2023/03/11 00:03:18;;;;;;;3.90;0.30;;;;;;;12.86;100.00;93715.72;5113320;28;20436;-54
2023/03/11 00:05:47;;;;;;;0.30;0.20;;;;;;;12.48;100.00;93680.44;5113271;28;20443;-53
2023/03/11 00:08:17;;;;;;;0.50;0.30;;;;;;;12.36;100.00;93649.25;5113546;28;20432;-53
2023/03/11 00:10:47;;;;;;;0.40;0.30;;;;;;;12.94;100.00;93709.59;5113404;28;20463;-54
2023/03/11 00:13:17;;;;;;;1.60;0.60;;;;;;;12.98;100.00;93710.47;5113572;28;20428;-53
2023/03/11 00:15:47;;;;;;;0.30;0.20;;;;;;;11.88;100.00;93555.91;5112780;28;20920;-53
2023/03/11 00:18:16;;;;;;;0.40;0.30;;;;;;;13.00;100.00;93699.53;5113180;28;20786;-53
2023/03/11 00:20:46;;;;;;;0.30;0.20;;;;;;;13.03;100.00;93697.00;5113289;28;20522;-53
2023/03/11 00:23:15;;;;;;;0.30;0.27;;;;;;;13.04;100.00;93697.78;5112790;28;20475;-53
2023/03/11 00:25:45;;;;;;;0.30;0.20;;;;;;;12.94;100.00;93679.53;5112834;28;20820;-53
2023/03/11 00:28:16;;;;;;;0.40;0.33;;;;;;;12.46;100.00;93670.13;5112878;28;20471;-54
2023/03/11 00:30:46;;;;;;;0.50;0.50;;;;;;;12.28;100.00;93678.50;5112790;28;21159;-54
2023/03/11 00:33:15;;;;;;;6.27;0.77;;;;;;;12.02;100.00;93671.41;5113055;28;20452;-54
2023/03/11 00:35:44;;;;;;;0.63;0.63;;;;;;;12.14;100.00;93669.97;5112948;28;20477;-53
2023/03/11 00:38:15;;;;;;;0.47;0.37;;;;;;;12.09;100.00;93665.63;5112660;28;20497;-54
2023/03/11 00:40:45;;;;;;;0.40;0.30;;;;;;;12.25;100.00;93653.34;5112358;28;20517;-54
2023/03/11 00:43:13;;;;;;;3.57;0.50;;;;;;;12.11;100.00;93636.88;5112588;28;20463;-54
2023/03/11 00:45:43;;;;;;;0.30;0.30;;;;;;;12.07;100.00;93614.69;5112451;28;20435;-54
2023/03/11 00:48:12;;;;;;;0.73;0.60;;;;;;;12.39;100.00;93627.34;5112189;28;20475;-53
2023/03/11 00:50:41;;;;;;;0.53;0.53;;;;;;;12.16;100.00;93628.72;5112449;28;20464;-53
2023/03/11 00:53:11;;;;;;;0.50;0.33;;;;;;;12.24;100.00;93641.19;5112239;28;20452;-53
2023/03/11 00:55:39;;;;;;;0.80;0.80;;;;;;;12.35;100.00;93645.03;5112398;28;20460;-53
2023/03/11 00:58:08;;;;;;;0.40;0.40;;;;;;;11.77;100.00;93669.59;5112278;28;20440;-53
2023/03/11 01:00:36;;;;;;;1.77;1.67;;;;;;;12.01;100.00;93650.50;5112538;28;20463;-53
2023/03/11 01:03:06;;;;;;;0.50;0.30;;;;;;;12.14;100.00;93652.16;5112237;28;20423;-53
2023/03/11 01:05:35;;;;;;;0.40;0.30;;;;;;;12.34;100.00;93667.38;5112303;28;20424;-53
2023/03/11 01:08:04;;;;;;;0.30;0.30;;;;;;;12.25;100.00;93663.19;5112166;28;20424;-53
2023/03/11 01:10:34;;;;;;;0.40;0.30;;;;;;;12.18;100.00;93665.56;5111865;28;20452;-53
2023/03/11 01:13:03;;;;;;;0.33;0.27;;;;;;;12.27;100.00;93664.44;5111950;28;20489;-52
2023/03/11 01:15:34;;;;;;;0.50;0.30;;;;;;;11.95;100.00;93590.69;5112005;28;20477;-52
2023/03/11 01:18:03;;;;;;;0.37;0.27;;;;;;;12.05;100.00;93651.41;5111957;28;20507;-52
2023/03/11 01:20:33;;;;;;;5.60;0.60;;;;;;;11.85;100.00;93705.97;5111748;28;20470;-52
2023/03/11 01:23:02;;;;;;;0.30;0.20;;;;;;;11.51;100.00;93671.47;5111929;28;20475;-53
2023/03/11 01:25:30;;;;;;;0.40;0.30;;;;;;;12.11;100.00;93711.22;5112382;28;20468;-52
2023/03/11 01:27:59;;;;;;;0.40;0.30;;;;;;;12.30;100.00;93700.97;5111263;28;20432;-53
2023/03/11 01:30:29;;;;;;;0.30;0.20;;;;;;;12.36;100.00;93707.69;5112175;28;20452;-53
2023/03/11 01:32:57;;;;;;;0.40;0.30;;;;;;;12.10;100.00;93694.50;5111317;28;20768;-53
2023/03/11 01:35:28;;;;;;;0.40;0.30;;;;;;;12.23;100.00;93700.69;5111672;28;20538;-53
2023/03/11 01:37:59;;;;;;;1.27;0.40;;;;;;;12.45;100.00;93708.41;5111869;28;20422;-53
2023/03/11 01:40:34;;;;;;;0.30;0.20;;;;;;;12.56;100.00;93709.63;5111688;28;20545;-53
2023/03/11 01:43:05;;;;;;;0.30;0.20;;;;;;;12.02;100.00;93697.16;5112009;28;20908;-52
2023/03/11 01:45:41;;;;;;;0.30;0.20;;;;;;;11.88;100.00;93693.94;5111074;28;20462;-52
2023/03/11 01:48:11;;;;;;;0.30;0.20;;;;;;;11.60;100.00;93619.19;5112025;28;20427;-52
2023/03/11 01:50:43;;;;;;;0.50;0.50;;;;;;;12.21;100.00;93691.50;5111641;28;20424;-52
2023/03/11 01:53:15;;;;;;;0.40;0.30;;;;;;;12.14;100.00;93689.34;5111966;28;20436;-52
2023/03/11 01:58:34;;;;;;;0.30;0.20;;;;;;;12.02;100.00;93666.09;5111497;28;20478;-52
2023/03/11 02:01:04;;;;;;;0.30;0.20;;;;;;;12.07;100.00;93667.78;5111607;28;20438;-52
2023/03/11 02:03:34;;;;;;;0.30;0.20;;;;;;;10.93;100.00;93618.97;5111692;28;20427;-52
2023/03/11 02:06:05;;;;;;;0.30;0.20;;;;;;;11.45;100.00;93652.31;5111229;28;20425;-52
2023/03/11 02:08:35;;;;;;;0.30;0.20;;;;;;;11.60;100.00;93652.91;5111128;28;21149;-52
2023/03/11 02:11:08;;;;;;;0.30;0.30;;;;;;;11.35;100.00;93651.84;5111238;28;20428;-52
2023/03/11 02:13:37;;;;;;;0.93;0.93;;;;;;;11.33;100.00;93636.25;5111101;28;20471;-52
2023/03/11 02:16:06;;;;;;;0.50;0.50;;;;;;;11.21;100.00;93645.94;5111240;28;20428;-53
2023/03/11 02:18:35;;;;;;;0.30;0.20;;;;;;;10.69;100.00;93639.84;5111191;28;20470;-53
2023/03/11 02:21:12;;;;;;;0.37;0.27;;;;;;;10.77;100.00;93637.22;5110858;28;20930;-53
2023/03/11 02:23:49;;;;;;;0.30;0.20;;;;;;;10.69;100.00;93619.44;5110706;28;20987;-53
2023/03/11 02:26:23;;;;;;;0.30;0.20;;;;;;;10.98;100.00;93618.81;5110494;28;20438;-53
2023/03/11 02:28:54;;;;;;;0.30;0.20;;;;;;;10.46;100.00;93622.50;5111011;28;20492;-54
2023/03/11 02:31:23;;;;;;;0.30;0.20;;;;;;;10.43;100.00;93602.72;5110719;28;20464;-53
2023/03/11 02:33:54;;;;;;;0.70;0.30;;;;;;;10.63;100.00;93594.16;5110686;28;20432;-53
2023/03/11 02:36:38;;;;;;;0.30;0.20;;;;;;;10.61;100.00;93522.19;5111073;28;20423;-53
2023/03/11 02:39:06;;;;;;;0.30;0.20;;;;;;;11.28;100.00;93588.66;5112463;28;20470;-54
2023/03/11 02:41:37;;;;;;;0.37;0.27;;;;;;;11.33;100.00;93582.44;5115070;28;20475;-54
2023/03/11 02:44:10;;;;;;;0.30;0.20;;;;;;;10.98;100.00;93570.34;5115279;28;20430;-54
2023/03/11 02:46:41;;;;;;;0.30;0.20;;;;;;;10.74;100.00;93587.50;5114981;28;20441;-53
2023/03/11 02:49:10;;;;;;;0.30;0.30;;;;;;;10.87;100.00;93587.63;5115245;28;20455;-54
2023/03/11 02:51:38;;;;;;;0.30;0.20;;;;;;;10.41;100.00;93569.69;5114781;28;21014;-54
2023/03/11 02:54:06;;;;;;;0.30;0.20;;;;;;;10.35;100.00;93576.25;5114757;28;20478;-54
2023/03/11 02:56:35;;;;;;;0.30;0.20;;;;;;;10.38;100.00;93567.66;5114861;28;20981;-54
2023/03/11 02:59:03;;;;;;;0.30;0.20;;;;;;;10.53;100.00;93572.50;5114923;28;20430;-54
2023/03/11 03:01:33;;;;;;;0.30;0.20;;;;;;;10.34;100.00;93574.66;5115027;28;20805;-54
2023/03/11 03:04:01;;;;;;;0.40;0.30;;;;;;;10.72;100.00;93573.78;5114643;28;20431;-54
2023/03/11 03:06:29;;;;;;;0.30;0.20;;;;;;;10.63;100.00;93578.28;5114982;28;20423;-54
2023/03/11 03:08:58;;;;;;;0.30;0.30;;;;;;;10.41;100.00;93585.59;5114840;28;20442;-54
2023/03/11 03:11:26;;;;;;;0.30;0.20;;;;;;;10.55;100.00;93573.75;5114304;28;20886;-54
2023/03/11 03:13:54;;;;;;;0.30;0.20;;;;;;;10.25;100.00;93572.00;5114578;28;20431;-54
2023/03/11 03:16:23;;;;;;;0.30;0.20;;;;;;;10.47;100.00;93576.41;5114765;28;20432;-54
2023/03/11 03:18:52;;;;;;;0.40;0.30;;;;;;;10.64;100.00;93571.13;5114615;28;20453;-54
2023/03/11 03:21:21;;;;;;;0.30;0.20;;;;;;;10.16;100.00;93565.91;5114007;28;20991;-54
2023/03/11 03:23:49;;;;;;;0.30;0.20;;;;;;;10.33;100.00;93586.34;5114279;28;20466;-54
2023/03/11 03:26:17;;;;;;;0.30;0.20;;;;;;;9.94;100.00;93592.47;5114317;28;20865;-53
2023/03/11 03:28:46;;;;;;;0.30;0.20;;;;;;;10.32;100.00;93605.97;5114213;28;20907;-54
2023/03/11 03:31:14;;;;;;;0.30;0.20;;;;;;;10.31;100.00;93601.75;5114198;28;20432;-54
2023/03/11 03:33:42;;;;;;;0.50;0.30;;;;;;;10.48;100.00;93607.09;5114088;28;20869;-53
2023/03/11 03:36:14;;;;;;;0.30;0.20;;;;;;;10.47;100.00;93618.78;5114178;28;20470;-53
2023/03/11 03:38:42;;;;;;;0.50;0.50;;;;;;;10.49;100.00;93616.59;5114076;28;20442;-54
2023/03/11 03:41:13;;;;;;;0.60;0.40;;;;;;;10.65;100.00;93633.63;5114028;28;20540;-54
2023/03/11 03:43:42;;;;;;;0.30;0.20;;;;;;;10.65;100.00;93638.91;5113769;28;20465;-54
2023/03/11 03:46:10;;;;;;;0.40;0.30;;;;;;;10.98;100.00;93631.31;5113497;28;20475;-54
2023/03/11 03:48:38;;;;;;;0.80;0.40;;;;;;;10.64;100.00;93606.34;5114075;28;20541;-54
2023/03/11 03:51:08;;;;;;;0.40;0.30;;;;;;;10.78;100.00;93590.28;5113435;28;20429;-54
2023/03/11 03:53:38;;;;;;;0.30;0.20;;;;;;;11.08;100.00;93626.44;5113940;28;20506;-54
2023/03/11 03:56:08;;;;;;;0.30;0.20;;;;;;;11.14;100.00;93651.72;5113846;28;20523;-54
2023/03/11 03:58:37;;;;;;;0.40;0.40;;;;;;;11.21;100.00;93638.75;5113612;28;20425;-53
2023/03/11 04:01:06;;;;;;;0.30;0.20;;;;;;;11.42;100.00;93637.03;5113506;28;20448;-53
2023/03/11 04:03:36;;;;;;;0.30;0.20;;;;;;;11.32;100.00;93629.41;5114127;28;20501;-54
2023/03/11 04:06:11;;;;;;;0.37;0.30;;;;;;;10.72;100.00;93607.44;5113797;28;20435;-54
2023/03/11 04:08:41;;;;;;;0.30;0.20;;;;;;;11.03;100.00;93645.16;5113346;28;20426;-54
2023/03/11 04:11:09;;;;;;;0.50;0.50;;;;;;;10.69;100.00;93661.81;5113637;28;20423;-54
2023/03/11 04:13:38;;;;;;;0.30;0.20;;;;;;;10.72;100.00;93663.84;5113157;28;20531;-54
2023/03/11 04:16:07;;;;;;;0.30;0.20;;;;;;;10.76;100.00;93661.34;5113426;28;20486;-54
2023/03/11 04:18:36;;;;;;;0.30;0.20;;;;;;;10.86;100.00;93666.34;5113212;28;20522;-54
2023/03/11 04:21:05;;;;;;;0.30;0.20;;;;;;;11.13;100.00;93652.78;5112784;28;20805;-54
2023/03/11 04:23:34;;;;;;;0.47;0.47;;;;;;;10.98;100.00;93673.72;5111530;28;21095;-54
2023/03/11 04:26:04;;;;;;;0.30;0.20;;;;;;;10.48;100.00;93684.69;5113182;28;20430;-54
2023/03/11 04:28:33;;;;;;;0.30;0.20;;;;;;;10.15;100.00;93617.28;5112804;28;20432;-54
2023/03/11 04:31:01;;;;;;;0.40;0.30;;;;;;;11.07;100.00;93683.22;5112459;28;20507;-54
2023/03/11 04:33:30;;;;;;;0.40;0.40;;;;;;;11.04;100.00;93675.88;5112750;28;20476;-52
2023/03/11 04:35:58;;;;;;;1.70;1.70;;;;;;;11.03;100.00;93671.66;5112578;28;20424;-52
2023/03/11 04:38:27;;;;;;;1.10;0.50;;;;;;;11.35;100.00;93673.06;5112658;28;20523;-52
2023/03/11 04:41:00;;;;;;;0.30;0.20;;;;;;;10.81;100.00;93669.16;5112821;28;20435;-51
2023/03/11 04:43:29;;;;;;;0.30;0.20;;;;;;;10.28;100.00;93624.34;5112533;28;20432;-53
2023/03/11 04:45:58;;;;;;;0.30;0.20;;;;;;;10.70;100.00;93668.66;5111868;28;20960;-53
2023/03/11 04:48:26;;;;;;;0.40;0.30;;;;;;;11.12;100.00;93663.72;5111170;28;20990;-53
2023/03/11 04:50:55;;;;;;;0.40;0.30;;;;;;;11.02;100.00;93613.66;5112732;28;20503;-53
2023/03/11 04:53:24;;;;;;;0.50;0.50;;;;;;;11.46;100.00;93653.88;5112607;28;20518;-54
2023/03/11 04:55:52;;;;;;;0.40;0.30;;;;;;;11.25;100.00;93604.44;5112278;28;20471;-53
2023/03/11 04:58:21;;;;;;;10.03;0.90;;;;;;;11.30;100.00;93612.25;5112100;28;20430;-53
2023/03/11 05:00:50;;;;;;;0.40;0.30;;;;;;;10.98;100.00;93583.59;5112598;28;20424;-53
2023/03/11 05:03:19;;;;;;;0.70;0.70;;;;;;;11.71;100.00;93656.81;5110603;28;21070;-53
2023/03/11 05:05:47;;;;;;;0.30;0.27;;;;;;;11.30;100.00;93660.75;5111607;28;20954;-53
2023/03/11 05:08:16;;;;;;;0.40;0.40;;;;;;;11.44;100.00;93665.88;5111333;28;20519;-53
2023/03/11 05:10:44;;;;;;;1.37;0.60;;;;;;;11.41;100.00;93658.53;5111245;28;20935;-53
2023/03/11 05:13:12;;;;;;;0.40;0.30;;;;;;;11.56;100.00;93667.91;5112032;28;20916;-53
2023/03/11 05:15:41;;;;;;;0.53;0.33;;;;;;;11.55;100.00;93669.00;5111948;28;20433;-52
2023/03/11 05:18:11;;;;;;;0.47;0.40;;;;;;;11.62;100.00;93658.66;5112037;28;20476;-57
2023/03/11 05:20:39;;;;;;;0.30;0.30;;;;;;;11.19;100.00;93656.84;5112115;28;20432;-53
2023/03/11 05:23:08;;;;;;;0.40;0.40;;;;;;;11.02;100.00;93648.91;5111567;28;20564;-53
2023/03/11 05:25:36;;;;;;;1.57;1.47;;;;;;;10.93;100.00;93647.34;5112107;28;20514;-53
2023/03/11 05:28:05;;;;;;;0.40;0.30;;;;;;;11.33;100.00;93635.50;5112175;28;20442;-54
2023/03/11 05:30:33;;;;;;;0.40;0.40;;;;;;;11.52;100.00;93632.47;5111863;28;20962;-53
2023/03/11 05:33:02;;;;;;;0.40;0.30;;;;;;;11.64;100.00;93627.31;5111750;28;20553;-54
2023/03/11 05:35:31;;;;;;;0.80;0.80;;;;;;;11.71;100.00;93628.41;5111797;28;20489;-54
2023/03/11 05:38:00;;;;;;;0.57;0.57;;;;;;;11.70;100.00;93626.84;5111948;28;20469;-54
2023/03/11 05:40:28;;;;;;;0.53;0.50;;;;;;;11.70;100.00;93631.38;5111655;28;20428;-54
2023/03/11 05:42:56;;;;;;;0.43;0.43;;;;;;;11.71;100.00;93631.06;5111759;28;20439;-54
2023/03/11 05:45:25;;;;;;;1.53;1.53;;;;;;;11.77;100.00;93634.31;5111678;28;20485;-54
2023/03/11 05:47:53;;;;;;;0.40;0.30;;;;;;;11.68;100.00;93601.69;5111671;28;20857;-52
2023/03/11 05:50:22;;;;;;;0.70;0.50;;;;;;;11.83;100.00;93612.59;5111634;28;20467;-52
2023/03/11 05:52:52;;;;;;;1.03;1.03;;;;;;;11.86;100.00;93625.25;5111673;28;20420;-54
2023/03/11 05:55:23;;;;;;;0.50;0.50;;;;;;;11.82;100.00;93596.97;5111849;28;20431;-54
2023/03/11 05:57:52;;;;;;;0.70;0.40;;;;;;;11.99;100.00;93637.53;5111738;28;20810;-53
2023/03/11 06:00:21;;;;;;;0.40;0.30;;;;;;;12.13;100.00;93639.97;5111162;28;20432;-53
2023/03/11 06:02:49;;;;;;;0.47;0.40;;;;;;;11.70;100.00;93639.34;5111136;28;20458;-53
2023/03/11 06:05:18;;;;;;;1.17;1.17;;;;;;;11.99;100.00;93647.38;5111399;28;20497;-53
2023/03/11 06:07:46;;;;;;;0.90;0.60;;;;;;;11.99;100.00;93605.66;5111626;28;20424;-53
2023/03/11 06:10:16;;;;;;;2.23;2.13;;;;;;;12.24;100.00;93645.72;5111430;28;20430;-53
2023/03/11 06:12:45;;;;;;;0.57;0.57;;;;;;;12.27;100.00;93645.09;5111519;28;20507;-53
2023/03/11 06:15:13;;;;;;;2.37;2.20;;;;;;;12.30;100.00;93647.84;5114912;28;20582;-53
2023/03/11 06:17:41;;;;;;;0.70;0.70;;;;;;;12.23;100.00;93642.28;5115433;28;20462;-53
2023/03/11 06:20:11;;;;;;;0.47;0.40;;;;;;;12.33;100.00;93649.09;5115735;28;20440;-53
2023/03/11 06:22:39;;;;;;;1.27;1.27;;;;;;;12.55;100.00;93651.47;5114960;28;20471;-54
2023/03/11 06:25:09;;;;;;;1.20;1.20;;;;;;;12.87;100.00;93648.16;5114877;28;20428;-54
2023/03/11 06:27:39;;;;;;;1.20;1.20;;;;;;;13.13;100.00;93642.69;5115247;28;20424;-54
2023/03/11 06:30:09;;;;;;;4.40;0.90;;;;;;;12.81;100.00;93652.09;5115270;28;20519;-55
2023/03/11 06:32:37;;;;;;;0.83;0.80;;;;;;;13.04;100.00;93644.59;5115352;28;20868;-55
2023/03/11 06:35:06;;;;;;;1.03;0.53;;;;;;;13.24;100.00;93646.50;5114951;28;20479;-55
2023/03/11 06:37:36;;;;;;;8.43;1.27;;;;;;;13.13;100.00;93650.66;5114663;28;20473;-55
2023/03/11 06:40:06;;;;;;;0.87;0.30;;;;;;;13.35;100.00;93645.00;5115045;28;20428;-55
2023/03/11 06:42:34;;;;;;;1.13;1.03;;;;;;;13.10;100.00;93643.34;5114846;28;20442;-53
2023/03/11 06:45:04;;;;;;;1.37;1.27;;;;;;;13.02;100.00;93641.50;5115138;28;20432;-53
2023/03/11 06:47:33;;;;;;;0.97;0.97;;;;;;;13.13;100.00;93634.72;5115086;28;20534;-54
2023/03/11 06:50:05;;;;;;;0.50;0.40;;;;;;;13.00;100.00;93627.75;5114516;28;20799;-53
2023/03/11 06:52:36;;;;;;;0.77;0.77;;;;;;;13.21;100.00;93617.88;5114773;28;20449;-54
2023/03/11 06:55:04;;;;;;;0.63;0.50;;;;;;;13.21;100.00;93616.00;5115146;28;20547;-54
2023/03/11 06:57:34;;;;;;;0.50;0.33;;;;;;;12.91;100.00;93619.03;5114517;28;20424;-54
2023/03/11 07:00:06;;;;;;;0.90;0.80;;;;;;;12.59;100.00;93616.00;5114556;28;20434;-54
2023/03/11 07:02:34;;;;;;;3.80;1.83;;;;;;;13.18;100.00;93615.91;5114218;28;20427;-54
2023/03/11 07:05:03;;;;;;;0.63;0.63;;;;;;;13.56;100.00;93616.47;5114413;28;20495;-54
2023/03/11 07:07:31;;;;;;;2.10;1.97;;;;;;;13.45;100.00;93620.66;5114094;28;20432;-54
2023/03/11 07:10:01;;;;;;;1.07;0.73;;;;;;;13.33;100.00;93620.63;5114362;28;20436;-54
2023/03/11 07:12:29;;;;;;;1.10;1.10;;;;;;;13.25;100.00;93616.13;5114272;28;20428;-54
2023/03/11 07:14:58;;;;;;;0.93;0.93;;;;;;;13.46;100.00;93622.19;5114106;28;20933;-54
2023/03/11 07:17:28;;;;;;;1.30;1.20;;;;;;;14.36;100.00;93608.84;5114189;28;20519;-54
2023/03/11 07:19:56;;;;;;;1.83;1.30;;;;;;;15.07;100.00;93603.72;5114354;28;20432;-55
2023/03/11 07:22:25;;;;;;;1.00;0.83;;;;;;;15.21;93.64;93601.44;5113961;28;20478;-55
2023/03/11 07:24:54;;;;;;;0.80;0.80;;;;;;;16.24;89.62;93597.69;5113667;28;20850;-57
2023/03/11 07:27:23;;;;;;;0.40;0.30;;;;;;;16.93;91.04;93613.06;5113209;28;20964;-56
2023/03/11 07:29:51;;;;;;;0.40;0.37;;;;;;;17.33;80.85;93599.34;5114324;28;20924;-55
2023/03/11 07:32:19;;;;;;;0.40;0.30;;;;;;;18.49;76.10;93598.03;5113915;28;20447;-56
2023/03/11 07:34:49;;;;;;;0.60;0.60;;;;;;;18.18;69.87;93599.03;5114146;28;20490;-57
2023/03/11 07:37:17;;;;;;;4.73;0.40;;;;;;;17.96;69.21;93593.66;5114273;28;20437;-58
2023/03/11 07:39:46;;;;;;;0.40;0.33;;;;;;;18.12;67.96;93594.31;5113260;28;20475;-58
2023/03/11 07:42:14;;;;;;;0.97;0.50;;;;;;;18.72;63.95;93558.50;5114027;28;20424;-59
2023/03/11 07:44:42;;;;;;;2.67;0.33;;;;;;;19.42;63.23;93579.38;5114205;28;20481;-58
2023/03/11 07:47:11;;;;;;;0.40;0.27;;;;;;;19.80;61.73;93579.03;5113736;28;20519;-57
2023/03/11 07:49:39;;;;;;;0.97;0.97;;;;;;;20.28;63.60;93577.22;5113295;28;20428;-57
2023/03/11 07:52:09;;;;;;;1.40;0.53;;;;;;;20.85;59.94;93571.09;5112772;28;20459;-57
2023/03/11 07:54:37;;;;;;;0.50;0.40;;;;;;;20.72;59.92;93566.41;5113360;28;20472;-57
2023/03/11 07:57:07;;;;;;;0.40;0.30;;;;;;;19.72;58.32;93569.34;5112679;28;20436;-57
2023/03/11 07:59:35;;;;;;;1.07;0.50;;;;;;;20.55;57.50;93567.03;5113342;28;20446;-56
2023/03/11 08:02:04;;;;;;;0.40;0.30;;;;;;;21.65;54.65;93563.00;5113147;28;20470;-56
2023/03/11 08:04:32;;;;;;;0.40;0.30;;;;;;;21.28;54.39;93561.34;5113280;28;20412;-56
2023/03/11 08:07:00;;;;;;;0.50;0.40;;;;;;;20.61;54.94;93560.16;5113207;28;20512;-55
2023/03/11 08:09:30;;;;;;;0.40;0.40;;;;;;;21.24;57.08;93557.88;5113412;28;20455;-55
2023/03/11 08:11:58;;;;;;;2.10;1.43;;;;;;;21.94;54.16;93554.63;5112772;28;20431;-54
2023/03/11 08:14:27;;;;;;;0.40;0.37;;;;;;;22.29;51.96;93551.19;5113048;28;20467;-54
2023/03/11 08:16:55;;;;;;;0.40;0.30;;;;;;;22.11;53.48;93545.03;5112956;28;20468;-54
2023/03/11 08:19:23;;;;;;;0.40;0.20;;;;;;;22.01;50.90;93518.81;5113364;28;20783;-53
2023/03/11 08:21:51;;;;;;;0.70;0.50;;;;;;;22.45;50.28;93535.41;5113144;28;20506;-54
2023/03/11 08:24:20;;;;;;;0.50;0.30;;;;;;;22.22;50.38;93535.00;5112987;28;20432;-53
2023/03/11 08:26:49;;;;;;;0.60;0.30;;;;;;;21.96;50.39;93525.34;5112318;28;20428;-54
2023/03/11 08:29:18;;;;;;;0.30;0.30;;;;;;;22.21;50.37;93530.00;5112256;28;20420;-52
2023/03/11 08:31:46;;;;;;;0.47;0.37;;;;;;;23.33;46.84;93529.81;5112269;28;20431;-53
2023/03/11 08:34:15;;;;;;;0.40;0.37;;;;;;;23.69;46.29;93524.28;5112491;28;20432;-53
2023/03/11 08:36:43;;;;;;;0.40;0.30;;;;;;;22.27;48.05;93533.84;5112557;28;20983;-53
2023/03/11 08:39:12;;;;;;;0.40;0.30;;;;;;;23.21;47.45;93535.66;5112413;28;20498;-53
2023/03/11 08:41:40;;;;;;;0.40;0.30;;;;;;;23.75;47.17;93523.47;5112912;28;20456;-53
2023/03/11 08:44:10;;;;;;;0.40;0.30;;;;;;;24.94;45.54;93522.97;5112788;28;20503;-53
2023/03/11 08:46:39;;;;;;;0.50;0.40;;;;;;;23.40;44.58;93447.97;5112245;28;20470;-53
2023/03/11 08:49:07;;;;;;;0.40;0.37;;;;;;;23.83;43.90;93513.38;5112600;28;20435;-52
2023/03/11 08:51:36;;;;;;;0.30;0.20;;;;;;;26.03;41.77;93508.06;5112542;28;20432;-53
2023/03/11 08:54:05;;;;;;;0.30;0.23;;;;;;;25.97;43.73;93498.84;5112756;28;20456;-53
2023/03/11 08:56:34;;;;;;;0.30;0.20;;;;;;;25.14;42.20;93472.41;5112244;28;20463;-52
2023/03/11 08:59:02;;;;;;;0.30;0.20;;;;;;;23.79;42.08;93499.88;5112576;28;20543;-54
2023/03/11 09:01:35;;;;;;;0.30;0.30;;;;;;;23.43;43.85;93495.06;5111726;28;20424;-55
2023/03/11 09:04:04;;;;;;;0.70;0.70;;;;;;;22.39;44.48;93503.78;5112279;28;20420;-55
2023/03/11 09:06:32;;;;;;;0.53;0.53;;;;;;;23.06;44.23;93500.97;5112127;28;20523;-55
2023/03/11 09:09:02;;;;;;;0.40;0.30;;;;;;;23.84;42.50;93483.22;5112234;28;20428;-54
2023/03/11 09:11:31;;;;;;;0.30;0.20;;;;;;;22.62;44.65;93491.44;5112467;28;21004;-55
2023/03/11 09:13:59;;;;;;;0.40;0.30;;;;;;;21.54;47.82;93495.59;5111782;28;20515;-55
2023/03/11 09:16:27;;;;;;;0.30;0.30;;;;;;;21.09;48.38;93493.53;5111674;28;20475;-55
2023/03/11 09:18:59;;;;;;;0.30;0.20;;;;;;;21.37;47.80;93488.22;5111116;28;20432;-54
2023/03/11 09:21:27;;;;;;;0.40;0.30;;;;;;;22.04;46.86;93475.63;5111752;28;20481;-54
2023/03/11 09:23:55;;;;;;;0.30;0.20;;;;;;;23.27;45.15;93471.94;5111801;28;20428;-54
2023/03/11 09:26:24;;;;;;;0.30;0.30;;;;;;;24.00;43.68;93463.78;5111600;28;20451;-53
2023/03/11 09:28:52;;;;;;;0.37;0.27;;;;;;;24.25;42.13;93475.22;5111842;28;20514;-53
2023/03/11 09:31:20;;;;;;;0.37;0.30;;;;;;;25.05;42.74;93478.31;5111094;28;20432;-58
2023/03/11 09:33:51;;;;;;;0.40;0.40;;;;;;;24.53;41.88;93479.59;5111857;28;20483;-54
2023/03/11 09:36:22;;;;;;;0.50;0.50;;;;;;;24.20;43.52;93483.00;5111383;28;20507;-54
2023/03/11 09:38:50;;;;;;;0.40;0.30;;;;;;;23.65;42.78;93481.03;5111049;28;20423;-53
2023/03/11 09:41:27;;;;;;;0.40;0.20;;;;;;;23.49;44.22;93471.84;5111630;28;20424;-53
2023/03/11 09:44:18;;;;;;;0.40;0.30;;;;;;;23.02;43.42;93481.31;5111774;28;20427;-54
2023/03/11 09:47:03;;;;;;;0.30;0.20;;;;;;;22.19;42.08;93479.09;5111953;28;20493;-54
2023/03/11 09:49:46;;;;;;;0.40;0.30;;;;;;;22.54;42.07;93446.66;5111194;28;20435;-54
2023/03/11 09:52:17;;;;;;;0.30;0.20;;;;;;;22.58;43.55;93474.44;5112053;28;20444;-54
2023/03/11 09:54:48;;;;;;;0.40;0.30;;;;;;;24.29;42.32;93475.16;5111016;28;20428;-54
2023/03/11 09:57:19;;;;;;;0.40;0.30;;;;;;;24.14;39.49;93473.75;5111468;28;20475;-54
2023/03/11 09:59:48;;;;;;;0.50;0.43;;;;;;;24.36;38.85;93467.00;5110890;28;20438;-54
2023/03/11 10:02:19;;;;;;;0.30;0.30;;;;;;;23.13;40.47;93468.50;5111406;28;20436;-54
2023/03/11 10:04:55;;;;;;;0.40;0.30;;;;;;;22.75;40.41;93465.56;5111332;28;20490;-55
2023/03/11 10:07:32;;;;;;;0.40;0.30;;;;;;;22.25;40.49;93447.88;5111019;28;20427;-55
2023/03/11 10:10:00;;;;;;;0.50;0.30;;;;;;;23.36;39.43;93463.41;5111417;28;20459;-54
2023/03/11 10:12:43;;;;;;;0.40;0.40;;;;;;;23.63;38.99;93458.25;5110841;28;20436;-54
2023/03/11 10:15:23;;;;;;;0.30;0.30;;;;;;;24.04;38.26;93469.94;5110774;28;20458;-53
2023/03/11 10:18:24;;;;;;;0.50;0.30;;;;;;;24.26;37.96;93460.50;5111208;28;20518;-53
2023/03/11 10:20:59;;;;;;;0.33;0.27;;;;;;;24.50;36.47;93474.97;5111552;28;20943;-53
2023/03/11 10:23:40;;;;;;;0.30;0.20;;;;;;;23.96;38.31;93471.91;5111232;28;20474;-55
2023/03/11 10:26:13;;;;;;;0.40;0.40;;;;;;;23.31;38.22;93475.38;5111572;28;20847;-56
2023/03/11 10:28:46;;;;;;;1.17;0.40;;;;;;;22.27;41.07;93469.84;5110885;28;20440;-55
2023/03/11 10:31:22;;;;;;;0.30;0.20;;;;;;;22.46;40.14;93465.97;5110919;28;20416;-55
2023/03/11 10:33:55;;;;;;;0.50;0.40;;;;;;;21.97;40.61;93491.06;5111392;28;20439;-55
2023/03/11 10:36:27;;;;;;;0.30;0.20;;;;;;;21.70;41.00;93468.28;5111094;28;20503;-55
2023/03/11 10:38:57;;;;;;;0.40;0.30;;;;;;;21.71;40.79;93454.41;5111278;28;20423;-56
2023/03/11 10:41:31;;;;;;;0.40;0.30;;;;;;;22.21;41.68;93465.25;5111084;28;20436;-55
2023/03/11 10:44:04;;;;;;;0.30;0.20;;;;;;;21.93;41.42;93474.09;5111224;28;20420;-56
2023/03/11 10:46:33;;;;;;;0.30;0.30;;;;;;;21.82;41.96;93467.91;5111319;28;20526;-55
2023/03/11 10:49:01;;;;;;;0.70;0.40;;;;;;;20.84;42.31;93469.16;5111397;28;20978;-56
2023/03/11 10:51:35;;;;;;;0.30;0.20;;;;;;;20.19;40.89;93477.97;5110602;28;20492;-56
2023/03/11 10:54:05;;;;;;;0.30;0.20;;;;;;;20.90;41.23;93467.63;5110953;28;20431;-56
2023/03/11 10:56:35;;;;;;;0.30;0.20;;;;;;;20.70;41.07;93418.69;5110887;28;20550;-56
2023/03/11 10:59:23;;;;;;;0.53;0.53;;;;;;;20.13;42.21;93446.41;5110890;28;20439;-55
2023/03/11 11:01:56;;;;;;;0.30;0.20;;;;;;;20.21;42.12;93467.59;5113474;28;20477;-53
2023/03/11 11:04:31;;;;;;;1.00;0.30;;;;;;;21.06;43.77;93468.13;5114825;28;20450;-54
2023/03/11 11:07:21;;;;;;;0.40;0.30;;;;;;;20.35;42.02;93433.88;5114055;28;20435;-54
2023/03/11 11:10:13;;;;;;;0.40;0.27;;;;;;;19.87;41.54;93427.78;5114226;28;20432;-53
2023/03/11 11:12:53;;;;;;;0.40;0.20;;;;;;;21.50;40.95;93457.09;5114442;28;20426;-55
2023/03/11 11:15:27;;;;;;;0.40;0.20;;;;;;;22.36;37.54;93372.31;5114303;28;20463;-55
2023/03/11 11:17:58;;;;;;;0.30;0.20;;;;;;;23.80;37.40;93450.03;5114339;28;20463;-56
2023/03/11 11:20:28;;;;;;;0.40;0.30;;;;;;;22.37;37.34;93452.09;5114022;28;20431;-56
2023/03/11 11:22:59;;;;;;;0.40;0.30;;;;;;;22.86;37.17;93441.22;5113899;28;20999;-56
2023/03/11 11:25:32;;;;;;;0.40;0.30;;;;;;;21.49;39.88;93453.63;5113984;28;20507;-55
2023/03/11 11:28:04;;;;;;;0.40;0.27;;;;;;;21.07;41.54;93437.34;5114181;28;20439;-56
2023/03/11 11:30:32;;;;;;;0.37;0.27;;;;;;;20.08;43.18;93447.53;5114031;28;20424;-55
2023/03/11 11:33:22;;;;;;;0.40;0.30;;;;;;;19.95;43.04;93435.53;5113937;28;20962;-54
2023/03/11 11:35:54;;;;;;;0.53;0.53;;;;;;;20.02;42.83;93437.47;5113972;28;20873;-53
2023/03/11 11:38:24;;;;;;;0.43;0.27;;;;;;;20.24;44.70;93434.59;5113947;28;20933;-53
2023/03/11 11:40:56;;;;;;;1.03;0.30;;;;;;;20.00;44.73;93431.72;5113775;28;20432;-54
2023/03/11 11:43:41;;;;;;;3.07;2.00;;;;;;;20.10;45.28;93431.78;5113989;28;20511;-54
2023/03/11 11:46:19;;;;;;;0.83;0.40;;;;;;;20.25;45.21;93438.06;5114052;28;20420;-54